メインページ
METAR-TAF:

METAR-TAF

空港 :

ヴォルゴグラード, ロシア

ヴォルゴグラード国際空港

緯度: 48-47N, 経度: 044-22E, 海抜: 145m

現時点の気象観測

当レポートは21分前の11:30(UTC)に作成
の風 6kt、東/南東から南西の間で変化する
気温 20°C
湿度 30%
気圧 1019 hPa
視程10km以上
1,500メートル以下は雲なし、積乱雲なし

METAR: URWW 241130Z 18003MPS 110V230 CAVOK 20/02 Q1019 R24/010070 NOSIG

時間: 14:51 (11:51 UTC)

予報

当レポートは53分前の10:58(UTC)に作成
予報は24日の 12時(UTC)から 24日の 21時(UTC)まで有効
南/南西の風 6kt、最大16ktの突風を伴う
視程10km以上
高度3000ftの雲は散在している, 積乱雲.
高度10000ftの千切れ雲あり
24日の 12時(UTC)から 24日の 21時(UTC)まで一時的に
南/南東の風 6kt、最大16ktの突風を伴う

TAF: URWW 241058Z 2412/2421 21003G08MPS 9999 SCT030CB BKN100 TEMPO 2412/2421 16003G08MPS

4,000以上の空港の気象観測と天気予報(METAR報とTAF報)

利用可能な観測所は地図上に黄色い丸と赤い丸で示す。

丸の上にカーソルを重ねると観測所名を参照できる。

次にクリックすると気象観測と天気予報を参照できる。

マップの切り替え:黒色「×」印の緑ボタンをクリックして拡大、「-」印の緑ボタンをクリックして縮小、緑色の三角印をクリックして隣りの地図に切り替え


METAR-TAF: